createdAt,value
2023-04-28T00:00:29.418Z,99635.72
2023-04-28T00:02:57.193Z,99636.59
2023-04-28T00:05:25.257Z,99633.06
2023-04-28T00:07:52.720Z,99634.28
2023-04-28T00:10:20.667Z,99631.91
2023-04-28T00:12:48.445Z,99635.06
2023-04-28T00:15:16.128Z,99632.50
2023-04-28T00:17:44.317Z,99632.00
2023-04-28T00:20:12.463Z,99635.28
2023-04-28T00:22:40.094Z,99628.66
2023-04-28T00:25:08.637Z,99629.75
2023-04-28T00:27:36.532Z,99634.94
2023-04-28T00:30:04.437Z,99631.47
2023-04-28T00:32:33.973Z,99625.06
2023-04-28T00:35:01.429Z,99623.59
2023-04-28T00:37:28.813Z,99620.81
2023-04-28T00:39:59.284Z,99627.13
2023-04-28T00:42:35.825Z,99628.53
2023-04-28T00:45:06.555Z,99634.28
2023-04-28T00:47:35.068Z,99630.59
2023-04-28T00:50:06.565Z,99627.63
2023-04-28T00:52:34.316Z,99629.28
2023-04-28T00:55:02.303Z,99632.44
2023-04-28T00:57:31.209Z,99633.84
2023-04-28T01:00:01.021Z,99634.34
2023-04-28T01:02:30.148Z,99637.34
2023-04-28T01:04:58.410Z,99640.94
2023-04-28T01:07:25.924Z,99645.66
2023-04-28T01:09:53.438Z,99650.81
2023-04-28T01:12:21.561Z,99651.03
2023-04-28T01:14:50.031Z,99647.47
2023-04-28T01:17:17.837Z,99648.47
2023-04-28T01:19:45.457Z,99644.19
2023-04-28T01:22:15.431Z,99643.69
2023-04-28T01:24:43.300Z,99642.97
2023-04-28T01:27:11.724Z,99649.00
2023-04-28T01:29:39.594Z,99647.53
2023-04-28T01:32:07.763Z,99640.78
2023-04-28T01:34:35.600Z,99641.59
2023-04-28T01:37:05.816Z,99638.69
2023-04-28T01:39:33.435Z,99639.53
2023-04-28T01:42:02.268Z,99630.97
2023-04-28T01:44:29.693Z,99639.00
2023-04-28T01:46:57.545Z,99630.16
2023-04-28T01:49:25.309Z,99630.25
2023-04-28T01:51:52.836Z,99633.25
2023-04-28T01:54:21.042Z,99628.00
2023-04-28T01:56:50.263Z,99632.12
2023-04-28T01:59:20.492Z,99638.78
2023-04-28T02:01:47.997Z,99638.72
2023-04-28T02:04:18.325Z,99639.59
2023-04-28T02:06:46.044Z,99629.84
2023-04-28T02:09:13.565Z,99639.59
2023-04-28T02:11:41.241Z,99636.22
2023-04-28T02:14:08.630Z,99635.22
2023-04-28T02:16:36.153Z,99637.19
2023-04-28T02:19:03.820Z,99639.53
2023-04-28T02:21:31.897Z,99638.72
2023-04-28T02:23:59.617Z,99637.53
2023-04-28T02:26:28.690Z,99641.97
2023-04-28T02:28:56.388Z,99647.78
2023-04-28T02:31:23.831Z,99640.38
2023-04-28T02:33:54.503Z,99645.50
2023-04-28T02:36:23.822Z,99644.53
2023-04-28T02:38:51.197Z,99642.13
2023-04-28T02:41:18.608Z,99646.03
2023-04-28T02:43:46.378Z,99640.16
2023-04-28T02:46:13.906Z,99651.97
2023-04-28T02:48:42.642Z,99653.00
2023-04-28T02:51:14.213Z,99647.62
2023-04-28T02:53:41.967Z,99651.06
2023-04-28T02:56:11.168Z,99646.44
2023-04-28T02:58:38.604Z,99642.09
2023-04-28T03:01:07.658Z,99642.25
2023-04-28T03:03:35.669Z,99649.31
2023-04-28T03:06:03.285Z,99654.16
2023-04-28T03:08:30.687Z,99649.94
2023-04-28T03:10:58.414Z,99650.59
2023-04-28T03:13:25.942Z,99648.97
2023-04-28T03:15:53.593Z,99651.47
2023-04-28T03:18:22.540Z,99653.78
2023-04-28T03:20:50.645Z,99652.94
2023-04-28T03:23:18.091Z,99649.72
2023-04-28T03:25:45.721Z,99648.78
2023-04-28T03:28:13.167Z,99647.66
2023-04-28T03:30:40.924Z,99642.19
2023-04-28T03:33:08.584Z,99649.63
2023-04-28T03:35:36.126Z,99651.31
2023-04-28T03:38:03.590Z,99660.31
2023-04-28T03:40:32.526Z,99654.78
2023-04-28T03:43:04.772Z,99650.47
2023-04-28T03:45:33.425Z,99651.47
2023-04-28T03:48:01.942Z,99650.22
2023-04-28T03:50:29.571Z,99649.56
2023-04-28T03:52:57.641Z,99653.78
2023-04-28T03:55:26.213Z,99655.66
2023-04-28T03:57:53.721Z,99649.63
2023-04-28T04:00:21.383Z,99652.91
2023-04-28T04:02:49.182Z,99655.66
2023-04-28T04:05:17.046Z,99653.03
2023-04-28T04:07:44.748Z,99660.97
2023-04-28T04:10:12.397Z,99667.94
2023-04-28T04:12:40.636Z,99669.19
2023-04-28T04:15:08.832Z,99672.97
2023-04-28T04:17:36.978Z,99674.66
2023-04-28T04:20:04.769Z,99675.03
2023-04-28T04:22:32.163Z,99675.97
2023-04-28T04:24:59.822Z,99669.78
2023-04-28T04:27:27.237Z,99666.44
2023-04-28T04:29:54.800Z,99671.72
2023-04-28T04:32:23.023Z,99668.34
2023-04-28T04:34:50.493Z,99669.00
2023-04-28T04:37:19.342Z,99658.03
2023-04-28T04:39:47.363Z,99655.28
2023-04-28T04:42:24.683Z,99655.50
2023-04-28T04:44:54.036Z,99656.38
2023-04-28T04:47:22.904Z,99653.69
2023-04-28T04:49:51.272Z,99661.81
2023-04-28T04:52:19.058Z,99658.03
2023-04-28T04:54:46.500Z,99660.81
2023-04-28T04:57:14.446Z,99666.84
2023-04-28T04:59:44.153Z,99666.72
2023-04-28T05:02:12.518Z,99664.34
2023-04-28T05:04:40.574Z,99665.16
2023-04-28T05:07:08.614Z,99662.59
2023-04-28T05:09:39.246Z,99658.37
2023-04-28T05:12:06.890Z,99659.91
2023-04-28T05:14:34.975Z,99666.44
2023-04-28T05:17:02.901Z,99664.06
2023-04-28T05:19:31.977Z,99667.09
2023-04-28T05:22:00.977Z,99669.12
2023-04-28T05:24:30.632Z,99663.88
2023-04-28T05:26:59.050Z,99666.66
2023-04-28T05:29:26.812Z,99670.44
2023-04-28T05:31:54.353Z,99666.72
2023-04-28T05:34:22.753Z,99669.75
2023-04-28T05:36:51.983Z,99667.53
2023-04-28T05:39:19.880Z,99672.41
2023-04-28T05:41:47.278Z,99671.59
2023-04-28T05:44:15.303Z,99666.75
2023-04-28T05:46:42.884Z,99674.03
2023-04-28T05:49:11.162Z,99669.38
2023-04-28T05:51:39.846Z,99681.53
2023-04-28T05:54:07.387Z,99680.31
2023-04-28T05:56:36.031Z,99680.63
2023-04-28T05:59:04.634Z,99673.84
2023-04-28T06:01:32.301Z,99683.72
2023-04-28T06:04:00.171Z,99673.84
2023-04-28T06:06:28.037Z,99682.72
2023-04-28T06:08:55.512Z,99686.44
2023-04-28T06:11:23.282Z,99688.44
2023-04-28T06:13:51.243Z,99692.03
2023-04-28T06:16:19.126Z,99685.50
2023-04-28T06:18:49.206Z,99694.66
2023-04-28T06:21:17.544Z,99694.25
2023-04-28T06:23:44.930Z,99693.91
2023-04-28T06:26:13.155Z,99691.59
2023-04-28T06:28:40.839Z,99693.53
2023-04-28T06:31:09.077Z,99692.03
2023-04-28T06:33:36.769Z,99694.94
2023-04-28T06:36:04.350Z,99694.84
2023-04-28T06:38:31.873Z,99692.47
2023-04-28T06:40:59.901Z,99691.22
2023-04-28T06:43:27.648Z,99700.97
2023-04-28T06:45:57.676Z,99695.66
2023-04-28T06:48:26.229Z,99693.59
2023-04-28T06:50:53.638Z,99699.06
2023-04-28T06:53:23.018Z,99695.81
2023-04-28T06:55:50.757Z,99695.75
2023-04-28T06:58:18.195Z,99707.69
2023-04-28T07:00:45.867Z,99700.34
2023-04-28T07:03:13.627Z,99690.34
2023-04-28T07:05:41.143Z,99687.81
2023-04-28T07:08:08.526Z,99681.03
2023-04-28T07:10:36.342Z,99677.50
2023-04-28T07:13:03.716Z,99693.12
2023-04-28T07:15:31.995Z,99685.50
2023-04-28T07:17:59.945Z,99693.00
2023-04-28T07:20:27.812Z,99689.03
2023-04-28T07:22:55.244Z,99686.81
2023-04-28T07:25:23.452Z,99687.53
2023-04-28T07:27:50.927Z,99688.06
2023-04-28T07:30:27.285Z,99691.69
2023-04-28T07:32:56.706Z,99691.03
2023-04-28T07:35:24.430Z,99683.13
2023-04-28T07:37:52.475Z,99688.34
2023-04-28T07:40:20.486Z,99684.06
2023-04-28T07:42:48.028Z,99682.75
2023-04-28T07:45:16.279Z,99678.97
2023-04-28T07:47:44.036Z,99681.56
2023-04-28T07:50:12.097Z,99674.78
2023-04-28T07:52:39.753Z,99673.28
2023-04-28T07:55:07.741Z,99671.63
2023-04-28T07:57:35.860Z,99662.69
2023-04-28T08:00:03.812Z,99653.28
2023-04-28T08:02:39.084Z,99656.69
2023-04-28T08:05:09.280Z,99652.44
2023-04-28T08:07:37.314Z,99652.59
2023-04-28T08:10:05.306Z,99656.75
2023-04-28T08:12:33.026Z,99646.25
2023-04-28T08:15:00.624Z,99642.75
2023-04-28T08:17:28.112Z,99634.28
2023-04-28T08:19:55.831Z,99623.06
2023-04-28T08:22:23.203Z,99639.19
2023-04-28T08:24:50.609Z,99630.63
2023-04-28T08:27:18.493Z,99626.44
2023-04-28T08:29:45.890Z,99620.41
2023-04-28T08:32:13.301Z,99629.09
2023-04-28T08:34:40.921Z,99623.16
2023-04-28T08:37:08.331Z,99623.19
2023-04-28T08:39:35.774Z,99617.97
2023-04-28T08:42:07.327Z,99619.72
2023-04-28T08:44:39.190Z,99613.63
2023-04-28T08:47:13.210Z,99613.63
2023-04-28T08:49:41.296Z,99617.00
2023-04-28T08:52:13.645Z,99605.78
2023-04-28T08:54:41.672Z,99607.53
2023-04-28T08:57:10.312Z,99599.69
2023-04-28T08:59:41.655Z,99604.94
2023-04-28T09:02:09.517Z,99604.03
2023-04-28T09:04:37.314Z,99597.91
2023-04-28T09:07:11.176Z,99604.91
2023-04-28T09:09:41.149Z,99603.19
2023-04-28T09:12:09.170Z,99606.66
2023-04-28T09:14:37.906Z,99611.00
2023-04-28T09:17:13.305Z,99612.78
2023-04-28T09:19:43.559Z,99600.53
2023-04-28T09:22:25.531Z,99618.00
2023-04-28T09:24:55.390Z,99610.16
2023-04-28T09:27:28.238Z,99614.47
2023-04-28T09:29:55.816Z,99606.59
2023-04-28T09:32:24.797Z,99609.25
2023-04-28T09:34:56.825Z,99604.78
2023-04-28T09:37:27.299Z,99602.03
2023-04-28T09:39:55.434Z,99605.41
2023-04-28T09:42:42.664Z,99599.81
2023-04-28T09:45:12.045Z,99594.56
2023-04-28T09:47:46.924Z,99590.94
2023-04-28T09:50:17.492Z,99597.84
2023-04-28T09:52:56.678Z,99583.56
2023-04-28T09:55:24.944Z,99583.38
2023-04-28T09:57:54.912Z,99582.19
2023-04-28T10:00:23.029Z,99590.91
2023-04-28T10:02:51.979Z,99579.81
2023-04-28T10:05:20.192Z,99579.28
2023-04-28T10:07:47.885Z,99570.22
2023-04-28T10:10:15.672Z,99571.34
2023-04-28T10:12:44.148Z,99564.09
2023-04-28T10:15:13.337Z,99561.94
2023-04-28T10:17:41.121Z,99560.16
2023-04-28T10:20:09.078Z,99560.03
2023-04-28T10:23:06.758Z,99552.03
2023-04-28T10:25:37.032Z,99556.19
2023-04-28T10:28:08.811Z,99542.59
2023-04-28T10:30:38.442Z,99529.25
2023-04-28T10:33:09.383Z,99530.41
2023-04-28T10:35:47.554Z,99533.47
2023-04-28T10:38:16.711Z,99520.16
2023-04-28T10:40:45.032Z,99512.91
2023-04-28T10:43:13.812Z,99513.56
2023-04-28T10:45:56.804Z,99511.91
2023-04-28T10:48:46.805Z,99514.69
2023-04-28T10:51:22.616Z,99515.94
2023-04-28T10:53:52.425Z,99501.97
2023-04-28T10:56:27.844Z,99498.34
2023-04-28T10:58:59.260Z,99499.56
2023-04-28T11:01:34.888Z,99498.97
2023-04-28T11:04:16.080Z,99492.94
2023-04-28T11:06:46.022Z,99493.44
2023-04-28T11:09:22.521Z,99486.72
2023-04-28T11:12:02.229Z,99482.28
2023-04-28T11:14:33.253Z,99485.81
2023-04-28T11:17:03.120Z,99480.72
2023-04-28T11:19:33.320Z,99475.91
2023-04-28T11:22:02.925Z,99467.22
2023-04-28T11:24:32.348Z,99464.44
2023-04-28T11:27:00.678Z,99464.75
2023-04-28T11:29:31.846Z,99462.19
2023-04-28T11:32:00.001Z,99482.47
2023-04-28T11:34:27.523Z,99472.78
2023-04-28T11:36:55.192Z,99485.00
2023-04-28T11:39:30.652Z,99479.50
2023-04-28T11:42:02.962Z,99478.03
2023-04-28T11:44:31.301Z,99461.94
2023-04-28T11:47:01.775Z,99452.22
2023-04-28T11:49:42.671Z,99458.22
2023-04-28T11:52:10.871Z,99456.69
2023-04-28T11:54:38.839Z,99452.75
2023-04-28T11:57:06.747Z,99449.22
2023-04-28T11:59:35.777Z,99452.22
2023-04-28T12:02:06.858Z,99442.75
2023-04-28T12:04:36.704Z,99442.56
2023-04-28T12:07:15.737Z,99449.69
2023-04-28T12:09:48.857Z,99445.72
2023-04-28T12:12:40.028Z,99442.19
2023-04-28T12:15:13.395Z,99430.31
2023-04-28T12:17:42.326Z,99437.56
2023-04-28T12:20:18.142Z,99427.47
2023-04-28T12:22:47.905Z,99430.63
2023-04-28T12:25:17.924Z,99422.47
2023-04-28T12:28:10.724Z,99426.50
2023-04-28T12:30:41.747Z,99426.19
2023-04-28T12:33:27.634Z,99433.41
2023-04-28T12:35:57.053Z,99400.38
2023-04-28T12:38:25.527Z,99401.56
2023-04-28T12:40:53.288Z,99400.38
2023-04-28T12:43:23.314Z,99391.16
2023-04-28T12:45:53.333Z,99387.88
2023-04-28T12:48:22.386Z,99389.69
2023-04-28T12:50:49.821Z,99374.97
2023-04-28T12:53:17.481Z,99381.28
2023-04-28T12:55:44.897Z,99364.75
2023-04-28T12:58:12.475Z,99353.00
2023-04-28T13:00:41.822Z,99343.31
2023-04-28T13:03:10.208Z,99342.47
2023-04-28T13:05:37.686Z,99329.44
2023-04-28T13:08:05.592Z,99325.59
2023-04-28T13:10:33.024Z,99333.84
2023-04-28T13:13:00.395Z,99327.44
2023-04-28T13:15:28.071Z,99331.63
2023-04-28T13:17:55.457Z,99324.00
2023-04-28T13:20:23.044Z,99315.22
2023-04-28T13:22:50.702Z,99323.84
2023-04-28T13:25:18.078Z,99317.72
2023-04-28T13:27:46.053Z,99311.78
2023-04-28T13:30:13.856Z,99317.22
2023-04-28T13:32:41.461Z,99321.13
2023-04-28T13:35:09.561Z,99316.50
2023-04-28T13:37:42.562Z,99319.44
2023-04-28T13:40:10.662Z,99315.75
2023-04-28T13:42:38.385Z,99316.28
2023-04-28T13:45:06.203Z,99324.81
2023-04-28T13:47:33.694Z,99313.34
2023-04-28T13:50:01.336Z,99293.44
2023-04-28T13:52:28.759Z,99290.72
2023-04-28T13:54:56.244Z,99294.66
2023-04-28T13:57:24.051Z,99287.91
2023-04-28T13:59:51.450Z,99287.03
2023-04-28T14:02:19.137Z,99281.06
2023-04-28T14:04:49.349Z,99282.53
2023-04-28T14:07:17.077Z,99272.28
2023-04-28T14:09:44.626Z,99281.75
2023-04-28T14:12:13.845Z,99274.25
2023-04-28T14:14:41.621Z,99276.00
2023-04-28T14:17:10.125Z,99263.66
2023-04-28T14:19:37.783Z,99259.78
2023-04-28T14:22:05.306Z,99267.38
2023-04-28T14:24:32.939Z,99274.94
2023-04-28T14:27:00.547Z,99266.66
2023-04-28T14:29:27.928Z,99264.91
2023-04-28T14:31:55.335Z,99261.22
2023-04-28T14:34:24.327Z,99257.88
2023-04-28T14:36:51.762Z,99251.28
2023-04-28T14:39:19.129Z,99251.16
2023-04-28T14:41:48.812Z,99249.38
2023-04-28T14:44:16.598Z,99249.41
2023-04-28T14:46:44.089Z,99254.34
2023-04-28T14:49:11.856Z,99244.38
2023-04-28T14:51:39.225Z,99245.41
2023-04-28T14:54:06.672Z,99233.00
2023-04-28T14:56:34.412Z,99234.31
2023-04-28T14:59:01.815Z,99245.19
2023-04-28T15:01:30.544Z,99235.31
2023-04-28T15:03:58.675Z,99241.19
2023-04-28T15:06:26.849Z,99238.75
2023-04-28T15:08:54.238Z,99237.63
2023-04-28T15:11:22.059Z,99232.16
2023-04-28T15:13:49.459Z,99234.41
2023-04-28T15:16:16.981Z,99228.31
2023-04-28T15:18:46.019Z,99232.91
2023-04-28T15:21:13.492Z,99220.38
2023-04-28T15:23:40.986Z,99213.72
2023-04-28T15:26:10.856Z,99215.91
2023-04-28T15:28:38.323Z,99215.69
2023-04-28T15:31:06.210Z,99219.25
2023-04-28T15:33:34.047Z,99218.31
2023-04-28T15:36:01.652Z,99219.88
2023-04-28T15:38:31.305Z,99216.97
2023-04-28T15:40:58.945Z,99207.56
2023-04-28T15:43:26.329Z,99214.41
2023-04-28T15:45:53.892Z,99217.59
2023-04-28T15:48:23.211Z,99214.88
2023-04-28T15:50:50.624Z,99218.13
2023-04-28T15:53:18.527Z,99213.63
2023-04-28T15:55:46.228Z,99210.69
2023-04-28T15:58:13.663Z,99208.81
2023-04-28T16:00:42.567Z,99198.41
2023-04-28T16:03:10.429Z,99192.59
2023-04-28T16:05:38.593Z,99199.50
2023-04-28T16:08:06.120Z,99198.03
2023-04-28T16:10:33.909Z,99194.69
2023-04-28T16:13:01.507Z,99191.69
2023-04-28T16:15:29.254Z,99193.53
2023-04-28T16:17:58.746Z,99184.31
2023-04-28T16:20:26.153Z,99180.94
2023-04-28T16:22:53.772Z,99177.28
2023-04-28T16:25:21.705Z,99183.19
2023-04-28T16:27:49.337Z,99176.66
2023-04-28T16:30:17.874Z,99173.69
2023-04-28T16:32:45.726Z,99169.16
2023-04-28T16:35:15.223Z,99161.22
2023-04-28T16:37:43.534Z,99163.16
2023-04-28T16:40:13.388Z,99164.84
2023-04-28T16:42:42.314Z,99146.38
2023-04-28T16:45:10.770Z,99146.09
2023-04-28T16:47:42.581Z,99140.31
2023-04-28T16:50:11.377Z,99147.34
2023-04-28T16:52:39.102Z,99141.16
2023-04-28T16:55:07.107Z,99139.97
2023-04-28T16:57:34.468Z,99141.41
2023-04-28T17:00:02.506Z,99135.03
2023-04-28T17:02:30.077Z,99137.78
2023-04-28T17:04:57.724Z,99123.94
2023-04-28T17:07:26.042Z,99122.22
2023-04-28T17:09:53.727Z,99120.44
2023-04-28T17:12:23.204Z,99115.22
2023-04-28T17:14:51.189Z,99115.72
2023-04-28T17:17:18.652Z,99110.88
2023-04-28T17:19:46.051Z,99096.78
2023-04-28T17:22:13.768Z,99094.41
2023-04-28T17:24:41.164Z,99090.94
2023-04-28T17:27:09.431Z,99079.63
2023-04-28T17:29:37.076Z,99074.31
2023-04-28T17:32:04.626Z,99072.09
2023-04-28T17:34:31.996Z,99086.50
2023-04-28T17:36:59.753Z,99090.25
2023-04-28T17:39:27.290Z,99103.22
2023-04-28T17:41:55.627Z,99116.09
2023-04-28T17:44:23.336Z,99116.06
2023-04-28T17:46:50.870Z,99115.97
2023-04-28T17:49:18.825Z,99111.53
2023-04-28T17:51:49.318Z,99113.22
2023-04-28T17:54:17.085Z,99111.69
2023-04-28T17:56:44.474Z,99111.63
2023-04-28T17:59:14.589Z,99105.75
2023-04-28T18:01:42.251Z,99122.13
2023-04-28T18:04:11.125Z,99127.59
2023-04-28T18:06:38.783Z,99134.56
2023-04-28T18:09:06.969Z,99138.00
2023-04-28T18:11:34.800Z,99137.81
2023-04-28T18:14:03.241Z,99130.81
2023-04-28T18:16:31.133Z,99141.56
2023-04-28T18:18:59.497Z,99139.91
2023-04-28T18:21:28.170Z,99139.16
2023-04-28T18:23:55.860Z,99151.50
2023-04-28T18:26:24.616Z,99141.06
2023-04-28T18:28:53.092Z,99140.37
2023-04-28T18:31:20.795Z,99136.03
2023-04-28T18:33:49.203Z,99137.97
2023-04-28T18:36:17.513Z,99144.91
2023-04-28T18:38:47.071Z,99139.66
2023-04-28T18:41:18.328Z,99137.28
2023-04-28T18:43:46.057Z,99142.50
2023-04-28T18:46:14.088Z,99143.47
2023-04-28T18:48:42.771Z,99139.97
2023-04-28T18:51:10.742Z,99144.28
2023-04-28T18:53:38.659Z,99145.25
2023-04-28T18:56:08.972Z,99141.94
2023-04-28T18:58:41.465Z,99141.84
2023-04-28T19:01:19.959Z,99140.25
2023-04-28T19:03:47.534Z,99143.66
2023-04-28T19:06:16.647Z,99141.88
2023-04-28T19:08:44.900Z,99141.03
2023-04-28T19:11:12.774Z,99132.53
2023-04-28T19:13:45.606Z,99135.16
2023-04-28T19:16:14.621Z,99136.91
2023-04-28T19:18:44.482Z,99153.56
2023-04-28T19:21:13.953Z,99151.00
2023-04-28T19:23:42.031Z,99153.63
2023-04-28T19:26:10.139Z,99152.03
2023-04-28T19:28:38.646Z,99153.78
2023-04-28T19:31:06.905Z,99158.22
2023-04-28T19:33:35.490Z,99167.00
2023-04-28T19:36:05.854Z,99164.31
2023-04-28T19:38:36.088Z,99177.28
2023-04-28T19:41:04.479Z,99166.94
2023-04-28T19:43:32.671Z,99168.69
2023-04-28T19:46:02.439Z,99169.63
2023-04-28T19:48:31.413Z,99166.91
2023-04-28T19:51:01.479Z,99162.69
2023-04-28T19:53:30.175Z,99159.22
2023-04-28T19:56:01.161Z,99168.00
2023-04-28T19:58:30.139Z,99161.94
2023-04-28T20:01:01.626Z,99154.84
2023-04-28T20:03:30.240Z,99145.47
2023-04-28T20:05:58.442Z,99135.81
2023-04-28T20:08:28.847Z,99128.84
2023-04-28T20:10:57.656Z,99123.75
2023-04-28T20:13:27.249Z,99115.94
2023-04-28T20:15:56.153Z,99101.19
2023-04-28T20:18:24.565Z,99106.34
2023-04-28T20:20:53.921Z,99112.56
2023-04-28T20:23:21.689Z,99113.38
2023-04-28T20:25:50.553Z,99106.47
2023-04-28T20:28:19.053Z,99106.41
2023-04-28T20:30:47.084Z,99102.94
2023-04-28T20:33:18.925Z,99106.44
2023-04-28T20:35:46.757Z,99100.38
2023-04-28T20:38:14.645Z,99104.75
2023-04-28T20:40:42.015Z,99102.19
2023-04-28T20:43:09.857Z,99096.03
2023-04-28T20:45:37.949Z,99107.31
2023-04-28T20:48:05.618Z,99093.44
2023-04-28T20:50:38.489Z,99095.13
2023-04-28T20:53:06.319Z,99094.16
2023-04-28T20:55:33.761Z,99117.75
2023-04-28T20:58:01.215Z,99110.78
2023-04-28T21:00:28.957Z,99113.41
2023-04-28T21:02:56.480Z,99110.78
2023-04-28T21:05:24.114Z,99101.13
2023-04-28T21:07:52.047Z,99097.72
2023-04-28T21:10:23.356Z,99096.03
2023-04-28T21:12:50.947Z,99090.81
2023-04-28T21:15:18.645Z,99094.25
2023-04-28T21:17:46.463Z,99095.97
2023-04-28T21:20:14.752Z,99090.81
2023-04-28T21:22:48.104Z,99097.75
2023-04-28T21:25:16.668Z,99092.56
2023-04-28T21:27:45.297Z,99092.53
2023-04-28T21:30:14.702Z,99095.97
2023-04-28T21:32:42.200Z,99104.63
2023-04-28T21:35:10.915Z,99104.69
2023-04-28T21:37:38.750Z,99103.84
2023-04-28T21:40:06.870Z,99102.03
2023-04-28T21:42:35.074Z,99092.44
2023-04-28T21:45:02.518Z,99090.66
2023-04-28T21:47:30.284Z,99093.37
2023-04-28T21:49:57.987Z,99088.91
2023-04-28T21:52:25.355Z,99095.97
2023-04-28T21:54:52.816Z,99088.97
2023-04-28T21:57:20.516Z,99089.81
2023-04-28T21:59:50.218Z,99094.22
2023-04-28T22:02:18.219Z,99093.47
2023-04-28T22:04:46.012Z,99099.47
2023-04-28T22:07:13.988Z,99090.78
2023-04-28T22:09:41.528Z,99093.44
2023-04-28T22:12:09.223Z,99089.06
2023-04-28T22:14:41.021Z,99097.69
2023-04-28T22:17:11.632Z,99097.59
2023-04-28T22:19:39.193Z,99093.31
2023-04-28T22:22:08.759Z,99111.84
2023-04-28T22:24:38.088Z,99099.69
2023-04-28T22:27:05.430Z,99109.19
2023-04-28T22:29:32.862Z,99092.59
2023-04-28T22:32:00.589Z,99095.28
2023-04-28T22:34:28.127Z,99097.91
2023-04-28T22:36:55.574Z,99097.81
2023-04-28T22:39:25.212Z,99088.25
2023-04-28T22:41:52.779Z,99091.81
2023-04-28T22:44:20.162Z,99085.75
2023-04-28T22:46:47.912Z,99077.94
2023-04-28T22:49:15.454Z,99079.72
2023-04-28T22:51:42.958Z,99084.88
2023-04-28T22:54:10.845Z,99091.84
2023-04-28T22:56:38.190Z,99084.84
2023-04-28T22:59:05.653Z,99083.94
2023-04-28T23:01:33.409Z,99083.09
2023-04-28T23:04:01.015Z,99087.41
2023-04-28T23:06:32.170Z,99075.31
2023-04-28T23:08:59.896Z,99078.81
2023-04-28T23:11:27.474Z,99075.31
2023-04-28T23:13:54.834Z,99064.88
2023-04-28T23:16:23.018Z,99076.25
2023-04-28T23:18:50.545Z,99064.88
2023-04-28T23:21:17.922Z,99066.69
2023-04-28T23:23:45.618Z,99056.22
2023-04-28T23:26:13.020Z,99056.22
2023-04-28T23:28:40.432Z,99052.81
2023-04-28T23:31:08.099Z,99053.63
2023-04-28T23:33:35.460Z,99053.66
2023-04-28T23:36:02.804Z,99057.13
2023-04-28T23:38:30.562Z,99051.88
2023-04-28T23:40:58.172Z,99044.09
2023-04-28T23:43:25.897Z,99044.97
2023-04-28T23:45:53.735Z,99042.38
2023-04-28T23:48:22.168Z,99034.53
2023-04-28T23:50:50.551Z,99040.63
2023-04-28T23:53:18.264Z,99034.56
2023-04-28T23:55:45.731Z,99026.78
2023-04-28T23:58:13.087Z,99029.34
